Time;durP1;ratioP1;P1;durP2;ratioP2;P2;SDS_P1;SDS_P2;PMS_P1;PMS_P2;Temp;Humidity;BMP_temperature;BMP_pressure;BME280_temperature;BME280_humidity;BME280_pressure;Samples;Min_cycle;Max_cycle;Signal;HPM_P1;HPM_P2
2022/08/04 00:02:06;;;;;;;4.77;4.10;;;;;;;20.68;100.00;11533.94;5092436;28;20728;-62
2022/08/04 00:04:41;;;;;;;4.60;4.40;;;;;;;20.77;100.00;13818.38;5091691;28;20192;-62
2022/08/04 00:07:17;;;;;;;4.70;4.27;;;;;;;20.49;100.00;9900.97;5092030;28;20180;-61
2022/08/04 00:09:49;;;;;;;7.53;4.23;;;;;;;20.60;100.00;10228.94;5092295;28;20183;-61
2022/08/04 00:12:17;;;;;;;4.50;4.20;;;;;;;20.52;100.00;9576.00;5092367;28;20221;-61
2022/08/04 00:14:48;;;;;;;4.55;4.32;;;;;;;20.35;100.00;9897.94;5092316;28;20263;-61
2022/08/04 00:17:20;;;;;;;5.33;4.67;;;;;;;20.36;100.00;6644.28;5092155;28;20288;-61
2022/08/04 00:19:49;;;;;;;4.37;4.17;;;;;;;20.36;100.00;5668.81;5092252;28;20180;-62
2022/08/04 00:22:22;;;;;;;4.32;4.13;;;;;;;20.45;100.00;5344.97;5092043;28;20550;-61
2022/08/04 00:24:49;;;;;;;4.97;4.78;;;;;;;20.53;100.00;3395.50;5091702;28;20271;-61
2022/08/04 00:27:17;;;;;;;4.40;4.20;;;;;;;20.55;100.00;4045.81;5092025;28;20222;-61
2022/08/04 00:29:45;;;;;;;12.23;4.95;;;;;;;20.49;100.00;5020.34;5091876;28;20183;-61
2022/08/04 00:32:13;;;;;;;6.60;4.60;;;;;;;20.56;100.00;5671.63;5091901;28;20180;-61
2022/08/04 00:34:41;;;;;;;4.82;4.47;;;;;;;20.43;100.00;6320.25;5092024;28;20630;-61
2022/08/04 00:37:08;;;;;;;4.90;4.60;;;;;;;20.57;100.00;5671.84;5091869;28;20191;-62
2022/08/04 00:39:38;;;;;;;4.82;4.32;;;;;;;20.56;100.00;6647.47;5090761;28;20643;-61
2022/08/04 00:42:29;;;;;;;4.22;3.85;;;;;;;20.59;100.00;5997.34;5091639;28;20249;-61
2022/08/04 00:45:13;;;;;;;4.50;4.30;;;;;;;20.51;100.00;7622.88;5092079;28;20200;-61
2022/08/04 00:47:57;;;;;;;4.95;4.68;;;;;;;20.56;100.00;7298.19;5091945;28;20241;-61
2022/08/04 00:50:36;;;;;;;5.22;4.90;;;;;;;20.55;100.00;6647.31;5091893;28;20184;-61
2022/08/04 00:53:13;;;;;;;7.40;4.83;;;;;;;20.65;100.00;6974.34;5092075;28;20250;-61
2022/08/04 00:56:04;;;;;;;7.80;4.80;;;;;;;20.64;100.00;6323.50;5092019;28;20240;-61
2022/08/04 00:58:57;;;;;;;5.32;4.93;;;;;;;20.72;100.00;5999.31;5091473;28;20303;-61
2022/08/04 01:01:41;;;;;;;5.82;5.43;;;;;;;20.70;100.00;6324.44;5085238;28;20670;-61
2022/08/04 01:04:16;;;;;;;6.63;5.40;;;;;;;20.76;100.00;5999.94;5091699;28;20268;-61
2022/08/04 01:06:51;;;;;;;11.85;7.72;;;;;;;20.76;100.00;8278.31;5091398;28;20268;-61
2022/08/04 01:09:41;;;;;;;6.87;6.30;;;;;;;20.71;100.00;7951.91;5091652;28;20622;-61
2022/08/04 01:12:23;;;;;;;9.13;8.03;;;;;;;20.60;100.00;9251.97;5091288;28;20195;-60
2022/08/04 01:15:07;;;;;;;13.05;10.02;;;;;;;20.70;100.00;9579.69;5091531;28;20224;-60
2022/08/04 01:17:43;;;;;;;11.70;10.70;;;;;;;20.63;100.00;8601.38;5095534;28;20619;-60
2022/08/04 01:20:17;;;;;;;13.43;10.80;;;;;;;20.64;100.00;8927.16;5095547;28;20196;-60
2022/08/04 01:23:20;;;;;;;13.73;11.30;;;;;;;20.57;100.00;8925.88;5095536;28;20219;-61
2022/08/04 01:26:30;;;;;;;12.97;9.90;;;;;;;20.41;100.00;4044.16;5095104;28;20610;-62
2022/08/04 01:29:10;;;;;;;9.87;8.93;;;;;;;20.20;100.00;-503.72;5094339;28;20192;-60
2022/08/04 01:31:55;;;;;;;8.97;8.10;;;;;;;20.11;100.00;-2449.88;5094886;28;20184;-61
2022/08/04 01:34:23;;;;;;;8.27;7.50;;;;;;;20.11;100.00;-1801.44;5095052;28;20188;-61
2022/08/04 01:36:59;;;;;;;8.60;7.40;;;;;;;20.12;100.00;-1152.78;5094894;28;20241;-61
2022/08/04 01:39:40;;;;;;;10.23;8.70;;;;;;;20.02;100.00;-1477.41;5094599;28;20218;-61
2022/08/04 01:42:12;;;;;;;9.13;8.50;;;;;;;19.89;100.00;-2126.16;5094799;28;20191;-61
2022/08/04 01:44:41;;;;;;;9.67;8.70;;;;;;;20.04;100.00;-3422.34;5095218;28;20283;-61
2022/08/04 01:47:09;;;;;;;11.33;9.60;;;;;;;20.12;100.00;-4394.53;5095108;28;20613;-61
2022/08/04 01:49:38;;;;;;;10.27;9.32;;;;;;;20.15;100.00;-3746.44;5094996;28;20573;-61
2022/08/04 01:52:09;;;;;;;10.00;9.40;;;;;;;20.05;100.00;-3098.25;5094777;28;20192;-61
2022/08/04 01:54:39;;;;;;;9.87;8.87;;;;;;;20.11;100.00;-2125.69;5094446;28;20191;-60
2022/08/04 01:57:07;;;;;;;9.83;9.13;;;;;;;19.99;100.00;-3098.28;5094691;28;20627;-61
2022/08/04 01:59:36;;;;;;;10.67;9.43;;;;;;;20.03;100.00;-3422.34;5094236;28;20276;-61
2022/08/04 02:02:06;;;;;;;12.00;9.03;;;;;;;19.88;100.00;-4070.25;5094612;28;20210;-61
2022/08/04 02:04:35;;;;;;;10.60;9.70;;;;;;;19.74;100.00;-6659.84;5094890;28;20180;-61
2022/08/04 02:07:17;;;;;;;10.10;9.17;;;;;;;19.53;100.00;-7629.13;5094297;28;20222;-61
2022/08/04 02:09:53;;;;;;;10.33;8.67;;;;;;;19.47;100.00;-8921.91;5094294;28;20183;-61
2022/08/04 02:12:25;;;;;;;13.60;10.30;;;;;;;19.37;100.00;-8597.84;5094279;28;20270;-60
2022/08/04 02:14:59;;;;;;;9.87;9.20;;;;;;;19.37;100.00;-8274.59;5093924;28;20237;-61
2022/08/04 02:17:31;;;;;;;13.17;10.53;;;;;;;19.41;100.00;-8274.91;5094357;28;20236;-61
2022/08/04 02:20:07;;;;;;;13.57;9.33;;;;;;;19.40;100.00;-7628.22;5094530;28;20180;-61
2022/08/04 02:22:39;;;;;;;9.03;8.40;;;;;;;19.35;100.00;-6981.25;5094206;28;20175;-61
2022/08/04 02:25:08;;;;;;;9.13;8.40;;;;;;;19.41;100.00;-6981.63;5094173;28;20634;-61
2022/08/04 02:27:50;;;;;;;11.43;8.70;;;;;;;19.54;100.00;-6335.34;5093665;28;20504;-60
2022/08/04 02:30:19;;;;;;;9.03;8.23;;;;;;;19.49;100.00;-6335.13;5094211;28;20229;-61
2022/08/04 02:32:52;;;;;;;9.73;8.57;;;;;;;19.71;100.00;-6012.50;5093824;28;20604;-61
2022/08/04 02:35:27;;;;;;;8.77;8.07;;;;;;;19.65;100.00;-3746.22;5093779;28;20241;-61
2022/08/04 02:38:06;;;;;;;8.93;7.80;;;;;;;19.69;100.00;-4393.88;5094246;28;20546;-60
2022/08/04 02:40:34;;;;;;;9.17;8.47;;;;;;;19.67;100.00;-2450.59;5093823;28;20230;-61
2022/08/04 02:43:04;;;;;;;8.20;7.50;;;;;;;19.77;100.00;-2126.38;5093848;28;20702;-61
2022/08/04 02:45:36;;;;;;;8.93;8.23;;;;;;;19.78;100.00;-1478.19;5092337;28;20191;-61
2022/08/04 02:48:08;;;;;;;9.00;8.37;;;;;;;19.87;100.00;-829.50;5093731;28;20206;-61
2022/08/04 02:50:38;;;;;;;8.83;8.27;;;;;;;19.71;100.00;3062.00;5093406;28;20682;-62
2022/08/04 02:53:06;;;;;;;10.43;9.40;;;;;;;19.70;100.00;3386.38;5093428;28;20275;-61
2022/08/04 02:55:35;;;;;;;8.80;8.30;;;;;;;19.74;100.00;2737.72;5093323;28;20589;-61
2022/08/04 02:58:04;;;;;;;9.90;8.43;;;;;;;19.73;100.00;1439.81;5092502;28;20208;-62
2022/08/04 03:00:31;;;;;;;9.23;8.30;;;;;;;19.78;100.00;791.44;5093633;28;20657;-61
2022/08/04 03:03:14;;;;;;;9.57;8.93;;;;;;;19.82;100.00;2413.97;5093371;28;20188;-60
2022/08/04 03:05:54;;;;;;;15.40;9.10;;;;;;;19.85;100.00;1440.81;5093562;28;20241;-61
2022/08/04 03:09:00;;;;;;;10.43;9.40;;;;;;;19.93;100.00;2415.00;5093289;28;20180;-61
2022/08/04 03:11:56;;;;;;;10.23;9.17;;;;;;;19.90;100.00;2090.19;5088365;28;20202;-60
2022/08/04 03:15:01;;;;;;;9.17;8.63;;;;;;;20.07;100.00;4364.88;5093586;28;20234;-61
2022/08/04 03:17:55;;;;;;;9.33;8.70;;;;;;;20.02;100.00;5988.84;5092711;28;20195;-60
2022/08/04 03:21:01;;;;;;;8.33;8.03;;;;;;;20.20;100.00;6316.53;5092818;28;20194;-61
2022/08/04 03:24:00;;;;;;;15.83;10.50;;;;;;;20.06;100.00;7289.78;5077368;28;20658;-61
2022/08/04 03:27:05;;;;;;;17.43;10.20;;;;;;;20.20;100.00;4691.41;5092751;28;20220;-61
2022/08/04 03:30:01;;;;;;;53.10;11.00;;;;;;;20.30;100.00;6318.13;5067048;28;20286;-60
2022/08/04 03:32:55;;;;;;;15.27;10.33;;;;;;;20.45;100.00;11528.59;5093197;28;20566;-61
2022/08/04 03:35:48;;;;;;;10.70;8.90;;;;;;;21.08;100.00;22648.97;5092614;28;20180;-61
2022/08/04 03:38:43;;;;;;;11.87;7.57;;;;;;;21.41;100.00;48624.84;5092323;28;20265;-60
2022/08/04 03:41:33;;;;;;;9.75;6.80;;;;;;;21.46;100.00;73130.91;5092657;28;20198;-61
2022/08/04 03:44:32;;;;;;;7.65;7.15;;;;;;;21.74;100.00;81154.22;5092717;28;20298;-62
2022/08/04 03:47:24;;;;;;;6.75;6.45;;;;;;;21.96;100.00;95548.88;5092408;28;20249;-61
2022/08/04 03:50:29;;;;;;;7.78;7.38;;;;;;;22.48;100.00;131327.28;5093183;28;20180;-61
2022/08/04 03:53:29;;;;;;;10.30;7.90;;;;;;;22.68;100.00;151740.25;5093385;28;20630;-61
2022/08/04 03:56:20;;;;;;;7.00;6.60;;;;;;;22.97;100.00;151814.28;5089526;28;20641;-61
2022/08/04 03:59:00;;;;;;;7.90;7.03;;;;;;;22.94;100.00;151805.34;5091972;28;20204;-61
2022/08/04 04:01:43;;;;;;;9.27;7.18;;;;;;;22.98;100.00;151816.84;5092075;28;20191;-61
2022/08/04 04:04:33;;;;;;;14.70;7.70;;;;;;;23.00;100.00;151820.69;5092197;28;20191;-61
2022/08/04 04:07:49;;;;;;;8.23;7.53;;;;;;;23.00;100.00;151821.91;5092190;28;20180;-61
2022/08/04 04:10:40;;;;;;;7.47;7.07;;;;;;;23.35;100.00;151908.69;5017515;28;20664;-62
2022/08/04 04:13:33;;;;;;;9.75;7.43;;;;;;;23.61;100.00;151975.09;5092125;28;20312;-61
2022/08/04 04:16:26;;;;;;;7.28;6.68;;;;;;;23.99;100.00;152070.81;5091843;28;20196;-61
2022/08/04 04:19:15;;;;;;;8.02;7.15;;;;;;;24.14;100.00;152110.38;5091938;28;20208;-60
2022/08/04 04:22:08;;;;;;;8.55;7.55;;;;;;;24.49;100.00;152197.25;5058856;28;20664;-60
2022/08/04 04:24:53;;;;;;;12.15;7.55;;;;;;;24.79;100.00;152272.63;5085497;28;20624;-61
2022/08/04 04:27:34;;;;;;;10.75;7.05;;;;;;;24.85;100.00;152287.97;5092403;28;20184;-61
2022/08/04 04:30:07;;;;;;;9.90;6.93;;;;;;;24.99;100.00;152325.03;5092108;28;20184;-61
2022/08/04 04:32:57;;;;;;;8.38;7.25;;;;;;;24.89;100.00;152298.22;5092596;28;20634;-61
2022/08/04 04:35:35;;;;;;;5.65;5.35;;;;;;;25.15;100.00;152363.38;5088895;28;20287;-61
2022/08/04 04:38:35;;;;;;;6.43;5.25;;;;;;;25.42;100.00;152433.63;5091866;28;20180;-61
2022/08/04 04:41:21;;;;;;;6.60;5.03;;;;;;;25.63;100.00;152484.84;5088674;28;20200;-61
2022/08/04 04:44:13;;;;;;;9.25;4.68;;;;;;;25.91;100.00;152557.69;5091625;28;20573;-62
2022/08/04 04:46:46;;;;;;;5.55;4.57;;;;;;;26.26;100.00;152644.66;5091672;28;20187;-61
2022/08/04 04:49:27;;;;;;;8.52;5.32;;;;;;;26.35;100.00;152667.69;5092272;28;20473;-62
2022/08/04 04:52:03;;;;;;;5.90;4.75;;;;;;;26.44;100.00;152690.66;5095743;28;20626;-62
2022/08/04 04:54:35;;;;;;;4.65;4.35;;;;;;;26.87;100.00;152798.13;5094315;28;20184;-63
2022/08/04 04:57:11;;;;;;;6.03;4.30;;;;;;;27.23;100.00;152891.53;5094863;28;20192;-62
2022/08/04 04:59:45;;;;;;;4.93;4.07;;;;;;;27.59;100.00;152982.38;5095869;28;20208;-62
2022/08/04 05:02:49;;;;;;;4.10;3.90;;;;;;;27.97;100.00;153078.34;5095655;28;20266;-62
2022/08/04 05:05:30;;;;;;;7.00;3.70;;;;;;;28.41;100.00;153189.78;5095897;28;20238;-63
2022/08/04 05:08:20;;;;;;;5.20;3.75;;;;;;;28.66;100.00;153251.22;5095981;28;20188;-63
2022/08/04 05:11:01;;;;;;;5.13;4.65;;;;;;;29.02;100.00;153343.50;5095625;28;20238;-63
2022/08/04 05:13:38;;;;;;;4.93;3.78;;;;;;;29.21;100.00;153390.88;5095592;28;20222;-63
2022/08/04 05:16:14;;;;;;;3.78;3.47;;;;;;;29.20;100.00;153389.59;5095659;28;20196;-63
2022/08/04 05:18:44;;;;;;;4.85;3.30;;;;;;;28.92;100.00;153319.16;5094322;28;20591;-63
2022/08/04 05:21:26;;;;;;;3.72;3.60;;;;;;;28.97;100.00;153330.69;5095496;28;20657;-63
2022/08/04 05:24:00;;;;;;;3.13;3.03;;;;;;;28.95;100.00;153325.53;5095460;28;20655;-62
2022/08/04 05:26:32;;;;;;;5.78;3.22;;;;;;;28.72;100.00;153266.66;5095500;28;20218;-62
2022/08/04 05:29:03;;;;;;;3.53;3.22;;;;;;;29.16;100.00;153379.34;5095731;28;20684;-63
2022/08/04 05:31:37;;;;;;;5.93;3.03;;;;;;;29.47;100.00;153458.81;5095468;28;20253;-63
2022/08/04 05:34:09;;;;;;;3.63;3.33;;;;;;;29.97;100.00;153584.41;5095530;28;20534;-62
2022/08/04 05:36:42;;;;;;;2.85;2.75;;;;;;;30.74;100.00;153779.28;5094932;28;20187;-62
2022/08/04 05:39:13;;;;;;;7.22;3.60;;;;;;;31.04;100.00;153854.97;5094984;28;20208;-62
2022/08/04 05:41:42;;;;;;;3.85;3.60;;;;;;;31.33;100.00;153928.06;5095472;28;20224;-63
2022/08/04 05:44:10;;;;;;;5.72;3.40;;;;;;;31.24;100.00;153907.56;5095385;28;20238;-64
2022/08/04 05:46:38;;;;;;;6.05;3.40;;;;;;;31.15;100.00;153884.47;5095425;28;20184;-63
2022/08/04 05:49:05;;;;;;;5.55;3.65;;;;;;;31.03;100.00;153853.69;5095474;28;20180;-64
2022/08/04 05:51:34;;;;;;;2.95;2.75;;;;;;;30.76;100.00;153784.44;5094917;28;20279;-63
2022/08/04 05:54:03;;;;;;;3.72;2.97;;;;;;;30.91;100.00;153822.88;5095104;28;20283;-65
2022/08/04 05:56:33;;;;;;;4.72;3.30;;;;;;;31.00;100.00;153844.72;5093582;28;20246;-63
2022/08/04 05:59:03;;;;;;;3.70;3.40;;;;;;;31.06;100.00;153860.13;5094323;28;20314;-61
2022/08/04 06:01:31;;;;;;;9.10;3.40;;;;;;;31.00;100.00;153846.03;5093732;28;20630;-61
2022/08/04 06:04:01;;;;;;;8.23;7.47;;;;;;;30.97;100.00;153837.00;5093841;28;20229;-63
2022/08/04 06:06:30;;;;;;;5.03;4.82;;;;;;;31.18;100.00;153890.91;5094372;28;20237;-63
2022/08/04 06:08:58;;;;;;;3.60;3.35;;;;;;;31.14;100.00;153881.94;5094145;28;20187;-62
2022/08/04 06:11:28;;;;;;;3.40;3.20;;;;;;;31.28;100.00;153916.53;5094330;28;20603;-62
2022/08/04 06:13:58;;;;;;;3.80;3.28;;;;;;;31.25;100.00;153910.13;5093599;28;20239;-62
2022/08/04 06:16:32;;;;;;;4.40;3.10;;;;;;;31.35;100.00;153934.50;5093698;28;20231;-63
2022/08/04 06:19:04;;;;;;;3.08;2.85;;;;;;;31.68;100.00;154017.91;5093790;28;20253;-62
2022/08/04 06:21:33;;;;;;;3.22;2.90;;;;;;;31.81;99.33;154049.97;5093592;28;20188;-62
2022/08/04 06:24:02;;;;;;;5.22;3.08;;;;;;;31.71;99.72;154025.59;5093716;28;20184;-61
2022/08/04 06:26:34;;;;;;;4.18;3.40;;;;;;;32.13;98.09;154132.13;5093370;28;20275;-62
2022/08/04 06:29:03;;;;;;;4.43;2.92;;;;;;;32.63;94.19;154259.25;5093323;28;20180;-62
2022/08/04 06:31:44;;;;;;;4.28;3.08;;;;;;;33.26;88.71;154419.75;5093581;28;20180;-62
2022/08/04 06:34:14;;;;;;;3.10;2.90;;;;;;;33.05;90.14;154367.06;5090879;28;20195;-62
2022/08/04 06:36:42;;;;;;;4.07;3.95;;;;;;;33.59;86.72;154503.19;5093943;28;20204;-61
2022/08/04 06:39:11;;;;;;;4.72;3.17;;;;;;;34.04;84.19;154617.53;5091584;28;20215;-62
2022/08/04 06:41:40;;;;;;;3.65;3.35;;;;;;;34.31;83.11;154686.97;5094326;28;20592;-61
2022/08/04 06:44:10;;;;;;;3.63;3.30;;;;;;;33.94;84.70;154593.16;5093919;28;20317;-62
2022/08/04 06:46:40;;;;;;;3.38;3.28;;;;;;;33.44;87.19;154464.69;5093871;28;20180;-62
2022/08/04 06:49:11;;;;;;;3.47;3.30;;;;;;;33.53;89.34;154489.06;5093679;28;20177;-61
2022/08/04 06:51:39;;;;;;;3.50;3.40;;;;;;;33.58;90.02;154500.63;5093308;28;20184;-62
2022/08/04 06:54:07;;;;;;;9.13;3.50;;;;;;;33.91;85.80;154585.41;5093868;28;20631;-62
2022/08/04 06:56:35;;;;;;;3.30;2.97;;;;;;;34.14;82.68;154643.25;5093389;28;20559;-64
2022/08/04 06:59:04;;;;;;;5.85;3.47;;;;;;;33.74;81.96;154540.47;5093403;28;20224;-61
2022/08/04 07:01:32;;;;;;;5.00;3.30;;;;;;;34.07;80.55;154623.97;5093168;28;20337;-62
2022/08/04 07:04:03;;;;;;;5.00;3.67;;;;;;;34.26;81.33;154672.81;5093185;28;20275;-62
2022/08/04 07:06:30;;;;;;;3.25;3.05;;;;;;;33.83;81.14;154564.88;5093239;28;20676;-61
2022/08/04 07:08:58;;;;;;;3.53;3.33;;;;;;;33.15;87.14;154390.19;5093058;28;20184;-62
2022/08/04 07:11:29;;;;;;;4.55;3.70;;;;;;;33.32;86.58;154433.84;5093054;28;20191;-59
2022/08/04 07:13:57;;;;;;;2.97;2.83;;;;;;;32.98;88.11;154349.06;5093178;28;20231;-61
2022/08/04 07:16:26;;;;;;;5.85;3.20;;;;;;;32.85;88.51;154314.41;5093118;28;20605;-62
2022/08/04 07:18:53;;;;;;;8.23;7.72;;;;;;;32.86;90.07;154318.25;5093321;28;20245;-61
2022/08/04 07:21:22;;;;;;;14.20;13.18;;;;;;;32.68;89.97;154272.03;5093123;28;20242;-60
2022/08/04 07:23:49;;;;;;;60.42;43.60;;;;;;;32.84;90.50;154311.88;5093495;28;20647;-62
2022/08/04 07:26:18;;;;;;;134.02;118.40;;;;;;;32.91;91.14;154331.09;5091045;28;20658;-61
2022/08/04 07:28:46;;;;;;;3.67;3.50;;;;;;;32.90;90.87;154328.53;5081748;28;20208;-64
2022/08/04 07:31:16;;;;;;;3.42;2.83;;;;;;;32.82;88.96;154306.72;5072154;28;20227;-60
2022/08/04 07:33:49;;;;;;;4.53;3.53;;;;;;;32.73;89.99;154283.59;5072555;28;20189;-63
2022/08/04 07:36:17;;;;;;;3.47;3.10;;;;;;;33.06;88.65;154369.59;5072095;28;20254;-62
2022/08/04 07:38:44;;;;;;;3.35;3.25;;;;;;;33.17;86.68;154395.34;5072017;28;20250;-60
2022/08/04 07:41:11;;;;;;;4.05;3.75;;;;;;;33.17;87.02;154395.34;5087485;28;20736;-61
2022/08/04 07:43:40;;;;;;;3.30;3.20;;;;;;;33.32;86.64;154433.84;5092515;28;20511;-61
2022/08/04 07:46:10;;;;;;;2.85;2.75;;;;;;;33.46;84.38;154469.81;5092208;28;20257;-61
2022/08/04 07:48:37;;;;;;;3.45;3.35;;;;;;;33.63;84.15;154512.19;5092139;28;20184;-62
2022/08/04 07:51:06;;;;;;;5.82;3.28;;;;;;;33.40;82.94;154455.66;5092597;28;20188;-62
2022/08/04 07:53:35;;;;;;;6.20;3.28;;;;;;;33.32;81.61;154433.84;5092033;28;20218;-62
2022/08/04 07:56:03;;;;;;;3.90;3.65;;;;;;;33.25;84.87;154415.88;5092780;28;20195;-61
2022/08/04 07:58:30;;;;;;;3.55;3.35;;;;;;;33.06;83.24;154369.59;5092577;28;20200;-61
2022/08/04 08:00:57;;;;;;;3.38;3.22;;;;;;;32.86;85.40;154318.25;5092824;28;20204;-62
2022/08/04 08:03:25;;;;;;;4.75;3.28;;;;;;;32.93;85.27;154336.22;5092294;28;20184;-61
2022/08/04 08:05:52;;;;;;;3.83;3.53;;;;;;;33.20;86.23;154404.31;5091445;28;20675;-61
2022/08/04 08:08:21;;;;;;;3.63;2.97;;;;;;;33.60;83.17;154505.78;5091492;28;20662;-61
2022/08/04 08:10:48;;;;;;;3.50;3.40;;;;;;;33.88;80.37;154576.44;5091889;28;20275;-63
2022/08/04 08:13:16;;;;;;;3.05;2.92;;;;;;;33.89;81.91;154580.31;5091856;28;20239;-62
2022/08/04 08:15:46;;;;;;;3.58;3.38;;;;;;;34.00;81.42;154605.97;5091886;28;20184;-61
2022/08/04 08:18:13;;;;;;;3.25;3.15;;;;;;;34.27;77.82;154675.41;5092518;28;20269;-61
2022/08/04 08:20:44;;;;;;;5.15;3.50;;;;;;;34.28;77.23;154677.97;5091704;28;20277;-62
2022/08/04 08:23:12;;;;;;;3.33;3.15;;;;;;;34.32;79.12;154689.53;5091955;28;20205;-61
2022/08/04 08:25:41;;;;;;;3.63;3.22;;;;;;;33.92;77.71;154588.00;5091766;28;20206;-63
2022/08/04 08:28:08;;;;;;;3.95;3.33;;;;;;;33.68;79.77;154526.38;5091796;28;20191;-62
2022/08/04 08:30:35;;;;;;;3.47;3.17;;;;;;;33.39;80.73;154453.13;5092103;28;20237;-62
2022/08/04 08:33:05;;;;;;;3.47;3.38;;;;;;;32.97;82.60;154346.47;5087497;28;20192;-61
2022/08/04 08:35:42;;;;;;;4.80;3.80;;;;;;;32.76;85.12;154292.56;5064990;28;20207;-62
2022/08/04 08:38:12;;;;;;;8.20;7.22;;;;;;;32.70;84.60;154275.91;5091665;28;20186;-61
2022/08/04 08:40:48;;;;;;;5.03;3.50;;;;;;;32.89;87.40;154325.94;5091841;28;20235;-61
2022/08/04 08:43:44;;;;;;;3.63;3.35;;;;;;;33.00;85.19;154352.94;5092034;28;20261;-61
2022/08/04 08:46:29;;;;;;;3.30;3.20;;;;;;;32.88;85.61;154322.13;5091900;28;20281;-62
2022/08/04 08:49:20;;;;;;;3.35;3.15;;;;;;;32.53;86.50;154233.50;5074115;28;20200;-61
2022/08/04 08:51:59;;;;;;;3.50;3.30;;;;;;;31.80;91.50;154047.41;5058338;28;20621;-62
2022/08/04 08:54:44;;;;;;;4.03;3.72;;;;;;;32.06;91.64;154115.41;5071522;28;20531;-62
2022/08/04 08:57:36;;;;;;;3.95;3.60;;;;;;;32.55;90.57;154238.63;5071527;28;20552;-61
2022/08/04 09:00:10;;;;;;;3.88;3.38;;;;;;;32.89;81.51;154325.94;5068048;28;20259;-61
2022/08/04 09:03:10;;;;;;;3.17;3.00;;;;;;;33.41;83.18;154456.97;5089777;28;20295;-62
2022/08/04 09:05:51;;;;;;;3.80;3.60;;;;;;;33.26;81.07;154418.47;5092145;28;20234;-61
2022/08/04 09:09:00;;;;;;;3.20;2.90;;;;;;;33.74;76.42;154540.47;5091462;28;20180;-61
2022/08/04 09:11:37;;;;;;;4.70;2.90;;;;;;;34.11;75.09;154634.25;5091695;28;20516;-62
2022/08/04 09:14:10;;;;;;;9.63;3.08;;;;;;;34.47;74.65;154725.47;5091383;28;20259;-61
2022/08/04 09:16:42;;;;;;;3.28;3.17;;;;;;;34.29;74.16;154681.81;5091470;28;20611;-62
2022/08/04 09:19:16;;;;;;;3.47;3.28;;;;;;;33.83;74.06;154564.88;5091515;28;20242;-62
2022/08/04 09:21:51;;;;;;;3.83;3.00;;;;;;;33.72;77.47;154536.63;5091270;28;20229;-61
2022/08/04 09:24:23;;;;;;;8.93;8.13;;;;;;;33.72;76.75;154535.34;5091240;28;20242;-60
2022/08/04 09:26:56;;;;;;;7.13;4.43;;;;;;;33.44;78.37;154464.69;5091483;28;20184;-62
2022/08/04 09:29:36;;;;;;;3.55;3.35;;;;;;;33.36;79.20;154444.09;5091405;28;20563;-62
2022/08/04 09:32:10;;;;;;;3.85;3.15;;;;;;;33.53;73.66;154487.75;5091247;28;20180;-61
2022/08/04 09:34:48;;;;;;;3.15;3.05;;;;;;;33.45;73.35;154467.22;5090963;28;20184;-62
2022/08/04 09:37:24;;;;;;;3.50;3.03;;;;;;;33.19;75.05;154400.44;5092535;28;20192;-61
2022/08/04 09:40:03;;;;;;;3.20;3.10;;;;;;;32.75;76.63;154288.75;5094615;28;20180;-61
2022/08/04 09:42:38;;;;;;;3.63;3.35;;;;;;;33.20;78.15;154403.03;5094683;28;20187;-61
2022/08/04 09:45:16;;;;;;;3.45;3.25;;;;;;;33.65;77.89;154518.69;5094598;28;20191;-61
2022/08/04 09:47:51;;;;;;;3.53;3.22;;;;;;;34.20;77.94;154657.44;5094507;28;20184;-61
2022/08/04 09:50:30;;;;;;;9.38;2.95;;;;;;;33.94;75.23;154593.16;5094324;28;20233;-63
2022/08/04 09:53:11;;;;;;;3.85;2.97;;;;;;;33.75;76.80;154544.31;5094523;28;20652;-61
2022/08/04 09:55:55;;;;;;;2.92;2.83;;;;;;;33.38;75.95;154449.25;5094682;28;20561;-61
2022/08/04 09:58:39;;;;;;;6.97;2.95;;;;;;;33.94;75.78;154591.88;5094382;28;20185;-60
2022/08/04 10:01:10;;;;;;;3.72;3.13;;;;;;;34.27;72.64;154675.41;5094583;28;20670;-62
2022/08/04 10:03:43;;;;;;;3.58;3.28;;;;;;;34.18;73.13;154653.56;5092995;28;20233;-60
2022/08/04 10:06:33;;;;;;;3.08;2.97;;;;;;;34.53;70.37;154740.91;5094475;28;20610;-61
2022/08/04 10:09:17;;;;;;;3.03;2.92;;;;;;;34.85;68.49;154823.19;5093947;28;20172;-62
2022/08/04 10:12:03;;;;;;;2.88;2.67;;;;;;;34.41;61.99;154711.38;5093997;28;20523;-62
2022/08/04 10:14:41;;;;;;;2.72;2.70;;;;;;;33.90;64.59;154582.88;5093802;28;20228;-60
2022/08/04 10:17:35;;;;;;;2.83;2.72;;;;;;;32.99;69.23;154351.66;5093693;28;20176;-61
2022/08/04 10:20:10;;;;;;;3.22;2.92;;;;;;;32.61;73.31;154255.38;5091626;28;20196;-62
2022/08/04 10:22:39;;;;;;;3.10;3.00;;;;;;;32.53;78.18;154234.81;5093651;28;20188;-61
2022/08/04 10:25:22;;;;;;;3.72;3.53;;;;;;;32.55;77.20;154239.91;5094028;28;20536;-61
2022/08/04 10:27:54;;;;;;;3.33;3.05;;;;;;;32.57;80.00;154243.78;5093667;28;20627;-61
2022/08/04 10:30:22;;;;;;;3.17;3.08;;;;;;;32.45;80.45;154212.97;5093825;28;20712;-61
2022/08/04 10:33:02;;;;;;;3.20;2.95;;;;;;;32.34;80.64;154184.72;5094683;28;20192;-64
2022/08/04 10:35:35;;;;;;;3.95;3.72;;;;;;;32.41;100.00;154202.72;5094009;28;20184;-62
2022/08/04 10:38:12;;;;;;;4.15;3.97;;;;;;;31.55;100.00;153984.56;5094175;28;20180;-60
2022/08/04 10:40:44;;;;;;;3.75;3.65;;;;;;;31.67;100.00;154015.34;5093692;28;20243;-61
2022/08/04 10:43:25;;;;;;;4.47;4.28;;;;;;;31.04;100.00;153856.28;5094001;28;20203;-61
2022/08/04 10:45:58;;;;;;;4.78;4.38;;;;;;;30.67;100.00;153761.34;5093342;28;20184;-61
2022/08/04 10:48:36;;;;;;;5.85;4.32;;;;;;;29.94;100.00;153576.75;5093352;28;20257;-61
2022/08/04 10:51:18;;;;;;;4.20;4.00;;;;;;;29.49;100.00;153462.69;5093938;28;20176;-62
2022/08/04 10:53:50;;;;;;;4.55;4.30;;;;;;;29.30;100.00;153415.25;5093514;28;20187;-61
2022/08/04 10:56:28;;;;;;;5.05;4.72;;;;;;;29.12;100.00;153369.09;5093651;28;20199;-61
2022/08/04 10:59:01;;;;;;;4.85;4.10;;;;;;;29.26;100.00;153404.97;5093458;28;20189;-61
2022/08/04 11:01:33;;;;;;;4.95;4.55;;;;;;;29.47;100.00;153458.81;5093444;28;20211;-61
2022/08/04 11:04:08;;;;;;;5.57;4.60;;;;;;;29.60;100.00;153489.56;5093299;28;20203;-62
2022/08/04 11:06:37;;;;;;;5.53;5.22;;;;;;;29.44;100.00;153451.16;5091889;28;20182;-61
2022/08/04 11:09:06;;;;;;;4.68;4.47;;;;;;;29.30;100.00;153415.25;5093414;28;20241;-61
2022/08/04 11:11:38;;;;;;;5.65;4.82;;;;;;;29.10;100.00;153364.00;5093236;28;20270;-62
2022/08/04 11:14:10;;;;;;;5.53;5.10;;;;;;;28.73;100.00;153269.25;5093330;28;20785;-61
2022/08/04 11:16:43;;;;;;;5.07;4.78;;;;;;;28.53;100.00;153219.22;5093685;28;20224;-61
2022/08/04 11:19:30;;;;;;;5.32;4.95;;;;;;;28.12;100.00;153115.56;5093279;28;20216;-61
2022/08/04 11:22:02;;;;;;;5.78;5.45;;;;;;;28.14;100.00;153120.66;5092790;28;20571;-61
2022/08/04 11:24:39;;;;;;;6.47;5.85;;;;;;;27.77;100.00;153025.91;5093351;28;20246;-62
2022/08/04 11:27:12;;;;;;;6.15;5.50;;;;;;;27.71;100.00;153013.09;5093553;28;20657;-63
2022/08/04 11:29:51;;;;;;;5.93;5.53;;;;;;;27.43;100.00;152941.41;5092997;28;20695;-63
2022/08/04 11:32:26;;;;;;;6.20;5.63;;;;;;;27.51;100.00;152960.63;5093030;28;20626;-63
2022/08/04 11:35:00;;;;;;;7.13;6.63;;;;;;;27.53;100.00;152965.78;5092213;28;20245;-63
2022/08/04 11:37:34;;;;;;;5.70;5.40;;;;;;;27.62;100.00;152990.09;5092332;28;20222;-62
2022/08/04 11:40:09;;;;;;;5.72;5.45;;;;;;;27.70;100.00;153009.28;5092537;28;20213;-62
2022/08/04 11:42:39;;;;;;;5.47;5.18;;;;;;;27.70;100.00;153010.56;5092380;28;20184;-62
2022/08/04 11:45:15;;;;;;;5.32;4.90;;;;;;;27.87;100.00;153051.50;5092059;28;20195;-62
2022/08/04 11:47:49;;;;;;;5.28;4.90;;;;;;;27.83;100.00;153042.56;5092639;28;20642;-63
2022/08/04 11:50:22;;;;;;;5.15;4.78;;;;;;;27.61;100.00;152986.25;5092579;28;20198;-64
2022/08/04 11:52:52;;;;;;;5.65;5.15;;;;;;;27.49;100.00;152955.53;5092333;28;20187;-62
2022/08/04 11:55:21;;;;;;;5.88;4.88;;;;;;;27.82;100.00;153040.00;5092409;28;20180;-61
2022/08/04 11:57:49;;;;;;;5.03;4.90;;;;;;;27.98;100.00;153079.66;5092122;28;20227;-61
2022/08/04 12:00:18;;;;;;;5.40;5.20;;;;;;;27.82;100.00;153040.00;5091201;28;20184;-61
2022/08/04 12:03:01;;;;;;;5.53;5.22;;;;;;;27.62;100.00;152990.09;5092282;28;20188;-60
2022/08/04 12:05:32;;;;;;;5.97;5.45;;;;;;;27.75;100.00;153020.81;5092262;28;20562;-61